sensor_id;sensor_type;location;lat;lon;timestamp;P1;durP1;ratioP1;P2;durP2;ratioP2
17949;SDS011;9100;48.700;9.316;2022-09-09T00:00:54;2.2;;;2;;
17949;SDS011;9100;48.700;9.316;2022-09-09T00:01:54;2.2;;;2;;
17949;SDS011;9100;48.700;9.316;2022-09-09T00:02:49;6.2;;;1.7;;
17949;SDS011;9100;48.700;9.316;2022-09-09T00:02:55;6.2;;;1.7;;
17949;SDS011;9100;48.700;9.316;2022-09-09T00:03:53;6.2;;;1.7;;
17949;SDS011;9100;48.700;9.316;2022-09-09T00:04:55;6.2;;;1.7;;
17949;SDS011;9100;48.700;9.316;2022-09-09T00:05:55;6.2;;;1.7;;
17949;SDS011;9100;48.700;9.316;2022-09-09T00:06:55;6.2;;;1.7;;
17949;SDS011;9100;48.700;9.316;2022-09-09T00:07:47;4;;;2;;
17949;SDS011;9100;48.700;9.316;2022-09-09T00:07:54;4;;;2;;
17949;SDS011;9100;48.700;9.316;2022-09-09T00:08:57;4;;;2;;
17949;SDS011;9100;48.700;9.316;2022-09-09T00:09:53;4;;;2;;
17949;SDS011;9100;48.700;9.316;2022-09-09T00:10:54;4;;;2;;
17949;SDS011;9100;48.700;9.316;2022-09-09T00:11:54;4;;;2;;
17949;SDS011;9100;48.700;9.316;2022-09-09T00:12:50;4.1;;;2.3;;
17949;SDS011;9100;48.700;9.316;2022-09-09T00:12:54;4.1;;;2.3;;
17949;SDS011;9100;48.700;9.316;2022-09-09T00:13:53;4.1;;;2.3;;
17949;SDS011;9100;48.700;9.316;2022-09-09T00:14:54;4.1;;;2.3;;
17949;SDS011;9100;48.700;9.316;2022-09-09T00:15:54;4.1;;;2.3;;
17949;SDS011;9100;48.700;9.316;2022-09-09T00:16:54;4.1;;;2.3;;
17949;SDS011;9100;48.700;9.316;2022-09-09T00:17:47;3.7;;;1.9;;
17949;SDS011;9100;48.700;9.316;2022-09-09T00:17:55;3.7;;;1.9;;
17949;SDS011;9100;48.700;9.316;2022-09-09T00:18:55;3.7;;;1.9;;
17949;SDS011;9100;48.700;9.316;2022-09-09T00:19:54;3.7;;;1.9;;
17949;SDS011;9100;48.700;9.316;2022-09-09T00:20:54;3.7;;;1.9;;
17949;SDS011;9100;48.700;9.316;2022-09-09T00:21:56;3.7;;;1.9;;
17949;SDS011;9100;48.700;9.316;2022-09-09T00:22:47;2.8;;;2.4;;
17949;SDS011;9100;48.700;9.316;2022-09-09T00:22:53;2.8;;;2.4;;
17949;SDS011;9100;48.700;9.316;2022-09-09T00:23:54;2.8;;;2.4;;
17949;SDS011;9100;48.700;9.316;2022-09-09T00:24:53;2.8;;;2.4;;
17949;SDS011;9100;48.700;9.316;2022-09-09T00:25:55;2.8;;;2.4;;
17949;SDS011;9100;48.700;9.316;2022-09-09T00:26:54;2.8;;;2.4;;
17949;SDS011;9100;48.700;9.316;2022-09-09T00:27:47;2.5;;;2.1;;
17949;SDS011;9100;48.700;9.316;2022-09-09T00:27:53;2.5;;;2.1;;
17949;SDS011;9100;48.700;9.316;2022-09-09T00:28:55;2.5;;;2.1;;
17949;SDS011;9100;48.700;9.316;2022-09-09T00:29:53;2.5;;;2.1;;
17949;SDS011;9100;48.700;9.316;2022-09-09T00:30:53;2.5;;;2.1;;
17949;SDS011;9100;48.700;9.316;2022-09-09T00:31:53;2.5;;;2.1;;
17949;SDS011;9100;48.700;9.316;2022-09-09T00:32:47;2.7;;;1.7;;
17949;SDS011;9100;48.700;9.316;2022-09-09T00:32:54;2.7;;;1.7;;
17949;SDS011;9100;48.700;9.316;2022-09-09T00:33:53;2.7;;;1.7;;
17949;SDS011;9100;48.700;9.316;2022-09-09T00:34:54;2.7;;;1.7;;
17949;SDS011;9100;48.700;9.316;2022-09-09T00:35:54;2.7;;;1.7;;
17949;SDS011;9100;48.700;9.316;2022-09-09T00:36:53;2.7;;;1.7;;
17949;SDS011;9100;48.700;9.316;2022-09-09T00:37:47;2.6;;;1.9;;
17949;SDS011;9100;48.700;9.316;2022-09-09T00:37:54;2.6;;;1.9;;
17949;SDS011;9100;48.700;9.316;2022-09-09T00:38:55;2.6;;;1.9;;
17949;SDS011;9100;48.700;9.316;2022-09-09T00:39:53;2.6;;;1.9;;
17949;SDS011;9100;48.700;9.316;2022-09-09T00:40:55;2.6;;;1.9;;
17949;SDS011;9100;48.700;9.316;2022-09-09T00:41:57;2.6;;;1.9;;
17949;SDS011;9100;48.700;9.316;2022-09-09T00:42:46;3;;;1.8;;
17949;SDS011;9100;48.700;9.316;2022-09-09T00:42:54;3;;;1.8;;
17949;SDS011;9100;48.700;9.316;2022-09-09T00:43:55;3;;;1.8;;
17949;SDS011;9100;48.700;9.316;2022-09-09T00:44:55;3;;;1.8;;
17949;SDS011;9100;48.700;9.316;2022-09-09T00:46:00;3;;;1.8;;
17949;SDS011;9100;48.700;9.316;2022-09-09T00:46:56;3;;;1.8;;
17949;SDS011;9100;48.700;9.316;2022-09-09T00:47:47;4;;;1.8;;
17949;SDS011;9100;48.700;9.316;2022-09-09T00:47:53;4;;;1.8;;
17949;SDS011;9100;48.700;9.316;2022-09-09T00:48:54;4;;;1.8;;
17949;SDS011;9100;48.700;9.316;2022-09-09T00:49:56;4;;;1.8;;
17949;SDS011;9100;48.700;9.316;2022-09-09T00:50:53;4;;;1.8;;
17949;SDS011;9100;48.700;9.316;2022-09-09T00:51:56;4;;;1.8;;
17949;SDS011;9100;48.700;9.316;2022-09-09T00:52:47;1.9;;;1.6;;
17949;SDS011;9100;48.700;9.316;2022-09-09T00:52:55;1.9;;;1.6;;
17949;SDS011;9100;48.700;9.316;2022-09-09T00:54:00;1.9;;;1.6;;
17949;SDS011;9100;48.700;9.316;2022-09-09T00:54:54;1.9;;;1.6;;
17949;SDS011;9100;48.700;9.316;2022-09-09T00:55:54;1.9;;;1.6;;
17949;SDS011;9100;48.700;9.316;2022-09-09T00:56:55;1.9;;;1.6;;
17949;SDS011;9100;48.700;9.316;2022-09-09T00:57:47;5.1;;;1.9;;
17949;SDS011;9100;48.700;9.316;2022-09-09T00:57:53;5.1;;;1.9;;
17949;SDS011;9100;48.700;9.316;2022-09-09T00:58:54;5.1;;;1.9;;
17949;SDS011;9100;48.700;9.316;2022-09-09T00:59:56;5.1;;;1.9;;
17949;SDS011;9100;48.700;9.316;2022-09-09T01:00:55;5.1;;;1.9;;
17949;SDS011;9100;48.700;9.316;2022-09-09T01:01:53;5.1;;;1.9;;
17949;SDS011;9100;48.700;9.316;2022-09-09T01:02:50;2;;;1.9;;
17949;SDS011;9100;48.700;9.316;2022-09-09T01:03:29;2;;;1.9;;
17949;SDS011;9100;48.700;9.316;2022-09-09T01:03:54;2;;;1.9;;
17949;SDS011;9100;48.700;9.316;2022-09-09T01:04:53;2;;;1.9;;
17949;SDS011;9100;48.700;9.316;2022-09-09T01:05:56;2;;;1.9;;
17949;SDS011;9100;48.700;9.316;2022-09-09T01:06:54;2;;;1.9;;
17949;SDS011;9100;48.700;9.316;2022-09-09T01:07:47;2.7;;;1.8;;
17949;SDS011;9100;48.700;9.316;2022-09-09T01:07:53;2.7;;;1.8;;
17949;SDS011;9100;48.700;9.316;2022-09-09T01:08:57;2.7;;;1.8;;
17949;SDS011;9100;48.700;9.316;2022-09-09T01:09:54;2.7;;;1.8;;
17949;SDS011;9100;48.700;9.316;2022-09-09T01:10:53;2.7;;;1.8;;
17949;SDS011;9100;48.700;9.316;2022-09-09T01:11:55;2.7;;;1.8;;
17949;SDS011;9100;48.700;9.316;2022-09-09T01:12:46;2.5;;;1.9;;
17949;SDS011;9100;48.700;9.316;2022-09-09T01:12:53;2.5;;;1.9;;
17949;SDS011;9100;48.700;9.316;2022-09-09T01:13:53;2.5;;;1.9;;
17949;SDS011;9100;48.700;9.316;2022-09-09T01:14:55;2.5;;;1.9;;
17949;SDS011;9100;48.700;9.316;2022-09-09T01:15:53;2.5;;;1.9;;
17949;SDS011;9100;48.700;9.316;2022-09-09T01:16:53;2.5;;;1.9;;
17949;SDS011;9100;48.700;9.316;2022-09-09T01:17:50;2.5;;;1.9;;
17949;SDS011;9100;48.700;9.316;2022-09-09T01:17:55;2.5;;;1.9;;
17949;SDS011;9100;48.700;9.316;2022-09-09T01:18:53;2.5;;;1.9;;
17949;SDS011;9100;48.700;9.316;2022-09-09T01:19:59;2.5;;;1.9;;
17949;SDS011;9100;48.700;9.316;2022-09-09T01:20:54;2.5;;;1.9;;
17949;SDS011;9100;48.700;9.316;2022-09-09T01:21:55;2.5;;;1.9;;
17949;SDS011;9100;48.700;9.316;2022-09-09T01:22:49;2.4;;;1.8;;
17949;SDS011;9100;48.700;9.316;2022-09-09T01:22:58;2.4;;;1.8;;
17949;SDS011;9100;48.700;9.316;2022-09-09T01:24:00;2.4;;;1.8;;
17949;SDS011;9100;48.700;9.316;2022-09-09T01:25:01;2.4;;;1.8;;
17949;SDS011;9100;48.700;9.316;2022-09-09T01:26:04;2.4;;;1.8;;
17949;SDS011;9100;48.700;9.316;2022-09-09T01:26:54;2.4;;;1.8;;
17949;SDS011;9100;48.700;9.316;2022-09-09T01:27:46;2.2;;;2;;
17949;SDS011;9100;48.700;9.316;2022-09-09T01:27:53;2.2;;;2;;
17949;SDS011;9100;48.700;9.316;2022-09-09T01:28:53;2.2;;;2;;
17949;SDS011;9100;48.700;9.316;2022-09-09T01:29:53;2.2;;;2;;
17949;SDS011;9100;48.700;9.316;2022-09-09T01:30:53;2.2;;;2;;
17949;SDS011;9100;48.700;9.316;2022-09-09T01:31:54;2.2;;;2;;
17949;SDS011;9100;48.700;9.316;2022-09-09T01:32:47;3.7;;;2.1;;
17949;SDS011;9100;48.700;9.316;2022-09-09T01:32:54;3.7;;;2.1;;
17949;SDS011;9100;48.700;9.316;2022-09-09T01:33:53;3.7;;;2.1;;
17949;SDS011;9100;48.700;9.316;2022-09-09T01:34:53;3.7;;;2.1;;
17949;SDS011;9100;48.700;9.316;2022-09-09T01:35:53;3.7;;;2.1;;
17949;SDS011;9100;48.700;9.316;2022-09-09T01:36:55;3.7;;;2.1;;
17949;SDS011;9100;48.700;9.316;2022-09-09T01:37:46;3.3;;;1.8;;
17949;SDS011;9100;48.700;9.316;2022-09-09T01:37:53;3.3;;;1.8;;
17949;SDS011;9100;48.700;9.316;2022-09-09T01:38:53;3.3;;;1.8;;
17949;SDS011;9100;48.700;9.316;2022-09-09T01:39:53;3.3;;;1.8;;
17949;SDS011;9100;48.700;9.316;2022-09-09T01:40:53;3.3;;;1.8;;
17949;SDS011;9100;48.700;9.316;2022-09-09T01:41:53;3.3;;;1.8;;
17949;SDS011;9100;48.700;9.316;2022-09-09T01:42:46;2;;;1.8;;
17949;SDS011;9100;48.700;9.316;2022-09-09T01:42:53;2;;;1.8;;
17949;SDS011;9100;48.700;9.316;2022-09-09T01:43:53;2;;;1.8;;
17949;SDS011;9100;48.700;9.316;2022-09-09T01:44:53;2;;;1.8;;
17949;SDS011;9100;48.700;9.316;2022-09-09T01:45:53;2;;;1.8;;
17949;SDS011;9100;48.700;9.316;2022-09-09T01:46:53;2;;;1.8;;
17949;SDS011;9100;48.700;9.316;2022-09-09T01:47:46;3.2;;;2.1;;
17949;SDS011;9100;48.700;9.316;2022-09-09T01:47:53;3.2;;;2.1;;
17949;SDS011;9100;48.700;9.316;2022-09-09T01:48:53;3.2;;;2.1;;
17949;SDS011;9100;48.700;9.316;2022-09-09T01:49:53;3.2;;;2.1;;
17949;SDS011;9100;48.700;9.316;2022-09-09T01:50:53;3.2;;;2.1;;
17949;SDS011;9100;48.700;9.316;2022-09-09T01:51:53;3.2;;;2.1;;
17949;SDS011;9100;48.700;9.316;2022-09-09T01:52:48;3.1;;;2.2;;
17949;SDS011;9100;48.700;9.316;2022-09-09T01:52:54;3.1;;;2.2;;
17949;SDS011;9100;48.700;9.316;2022-09-09T01:53:53;3.1;;;2.2;;
17949;SDS011;9100;48.700;9.316;2022-09-09T01:54:53;3.1;;;2.2;;
17949;SDS011;9100;48.700;9.316;2022-09-09T01:55:57;3.1;;;2.2;;
17949;SDS011;9100;48.700;9.316;2022-09-09T01:56:55;3.1;;;2.2;;
17949;SDS011;9100;48.700;9.316;2022-09-09T01:57:52;4.4;;;2.3;;
17949;SDS011;9100;48.700;9.316;2022-09-09T01:57:55;4.4;;;2.3;;
17949;SDS011;9100;48.700;9.316;2022-09-09T01:58:57;4.4;;;2.3;;
17949;SDS011;9100;48.700;9.316;2022-09-09T01:59:57;4.4;;;2.3;;
17949;SDS011;9100;48.700;9.316;2022-09-09T02:00:54;4.4;;;2.3;;
17949;SDS011;9100;48.700;9.316;2022-09-09T02:01:56;4.4;;;2.3;;
17949;SDS011;9100;48.700;9.316;2022-09-09T02:02:48;2.6;;;1.7;;
17949;SDS011;9100;48.700;9.316;2022-09-09T02:02:55;2.6;;;1.7;;
17949;SDS011;9100;48.700;9.316;2022-09-09T02:03:53;2.6;;;1.7;;
17949;SDS011;9100;48.700;9.316;2022-09-09T02:04:54;2.6;;;1.7;;
17949;SDS011;9100;48.700;9.316;2022-09-09T02:05:55;2.6;;;1.7;;
17949;SDS011;9100;48.700;9.316;2022-09-09T02:06:53;2.6;;;1.7;;
17949;SDS011;9100;48.700;9.316;2022-09-09T02:07:47;2.1;;;1.7;;
17949;SDS011;9100;48.700;9.316;2022-09-09T02:07:54;2.1;;;1.7;;
17949;SDS011;9100;48.700;9.316;2022-09-09T02:08:54;2.1;;;1.7;;
17949;SDS011;9100;48.700;9.316;2022-09-09T02:09:56;2.1;;;1.7;;
17949;SDS011;9100;48.700;9.316;2022-09-09T02:10:53;2.1;;;1.7;;
17949;SDS011;9100;48.700;9.316;2022-09-09T02:11:54;2.1;;;1.7;;
17949;SDS011;9100;48.700;9.316;2022-09-09T02:12:47;2.5;;;1.8;;
17949;SDS011;9100;48.700;9.316;2022-09-09T02:12:54;2.5;;;1.8;;
17949;SDS011;9100;48.700;9.316;2022-09-09T02:13:54;2.5;;;1.8;;
17949;SDS011;9100;48.700;9.316;2022-09-09T02:14:55;2.5;;;1.8;;
17949;SDS011;9100;48.700;9.316;2022-09-09T02:15:55;2.5;;;1.8;;
17949;SDS011;9100;48.700;9.316;2022-09-09T02:16:54;2.5;;;1.8;;
17949;SDS011;9100;48.700;9.316;2022-09-09T02:17:46;3.2;;;1.6;;
17949;SDS011;9100;48.700;9.316;2022-09-09T02:17:53;3.2;;;1.6;;
17949;SDS011;9100;48.700;9.316;2022-09-09T02:18:54;3.2;;;1.6;;
17949;SDS011;9100;48.700;9.316;2022-09-09T02:19:54;3.2;;;1.6;;
17949;SDS011;9100;48.700;9.316;2022-09-09T02:20:53;3.2;;;1.6;;
17949;SDS011;9100;48.700;9.316;2022-09-09T02:21:53;3.2;;;1.6;;
17949;SDS011;9100;48.700;9.316;2022-09-09T02:22:47;2.4;;;1.8;;
17949;SDS011;9100;48.700;9.316;2022-09-09T02:22:53;2.4;;;1.8;;
17949;SDS011;9100;48.700;9.316;2022-09-09T02:23:53;2.4;;;1.8;;
17949;SDS011;9100;48.700;9.316;2022-09-09T02:24:53;2.4;;;1.8;;
17949;SDS011;9100;48.700;9.316;2022-09-09T02:25:53;2.4;;;1.8;;
17949;SDS011;9100;48.700;9.316;2022-09-09T02:26:53;2.4;;;1.8;;
17949;SDS011;9100;48.700;9.316;2022-09-09T02:27:47;1.6;;;1.5;;
17949;SDS011;9100;48.700;9.316;2022-09-09T02:27:53;1.6;;;1.5;;
17949;SDS011;9100;48.700;9.316;2022-09-09T02:28:54;1.6;;;1.5;;
17949;SDS011;9100;48.700;9.316;2022-09-09T02:29:53;1.6;;;1.5;;
17949;SDS011;9100;48.700;9.316;2022-09-09T02:30:53;1.6;;;1.5;;
17949;SDS011;9100;48.700;9.316;2022-09-09T02:31:53;1.6;;;1.5;;
17949;SDS011;9100;48.700;9.316;2022-09-09T02:32:46;3.1;;;1.6;;
17949;SDS011;9100;48.700;9.316;2022-09-09T02:32:54;3.1;;;1.6;;
17949;SDS011;9100;48.700;9.316;2022-09-09T02:33:54;3.1;;;1.6;;
17949;SDS011;9100;48.700;9.316;2022-09-09T02:34:54;3.1;;;1.6;;
17949;SDS011;9100;48.700;9.316;2022-09-09T02:35:53;3.1;;;1.6;;
17949;SDS011;9100;48.700;9.316;2022-09-09T02:36:53;3.1;;;1.6;;
17949;SDS011;9100;48.700;9.316;2022-09-09T02:37:46;1.6;;;1.5;;
17949;SDS011;9100;48.700;9.316;2022-09-09T02:37:53;1.6;;;1.5;;
17949;SDS011;9100;48.700;9.316;2022-09-09T02:38:53;1.6;;;1.5;;
17949;SDS011;9100;48.700;9.316;2022-09-09T02:39:53;1.6;;;1.5;;
17949;SDS011;9100;48.700;9.316;2022-09-09T02:40:53;1.6;;;1.5;;
17949;SDS011;9100;48.700;9.316;2022-09-09T02:41:53;1.6;;;1.5;;
17949;SDS011;9100;48.700;9.316;2022-09-09T02:42:47;3.2;;;1.9;;
17949;SDS011;9100;48.700;9.316;2022-09-09T02:42:53;3.2;;;1.9;;
17949;SDS011;9100;48.700;9.316;2022-09-09T02:43:53;3.2;;;1.9;;
17949;SDS011;9100;48.700;9.316;2022-09-09T02:44:53;3.2;;;1.9;;
17949;SDS011;9100;48.700;9.316;2022-09-09T02:45:55;3.2;;;1.9;;
17949;SDS011;9100;48.700;9.316;2022-09-09T02:46:59;3.2;;;1.9;;
17949;SDS011;9100;48.700;9.316;2022-09-09T02:47:48;3.5;;;2;;
17949;SDS011;9100;48.700;9.316;2022-09-09T02:47:55;3.5;;;2;;
17949;SDS011;9100;48.700;9.316;2022-09-09T02:48:55;3.5;;;2;;
17949;SDS011;9100;48.700;9.316;2022-09-09T02:49:56;3.5;;;2;;
17949;SDS011;9100;48.700;9.316;2022-09-09T02:50:54;3.5;;;2;;
17949;SDS011;9100;48.700;9.316;2022-09-09T02:51:54;3.5;;;2;;
17949;SDS011;9100;48.700;9.316;2022-09-09T02:52:49;3.9;;;2.1;;
17949;SDS011;9100;48.700;9.316;2022-09-09T02:52:57;3.9;;;2.1;;
17949;SDS011;9100;48.700;9.316;2022-09-09T02:53:54;3.9;;;2.1;;
17949;SDS011;9100;48.700;9.316;2022-09-09T02:54:54;3.9;;;2.1;;
17949;SDS011;9100;48.700;9.316;2022-09-09T02:55:54;3.9;;;2.1;;
17949;SDS011;9100;48.700;9.316;2022-09-09T02:56:53;3.9;;;2.1;;
17949;SDS011;9100;48.700;9.316;2022-09-09T02:57:46;7.4;;;2.4;;
17949;SDS011;9100;48.700;9.316;2022-09-09T02:57:53;7.4;;;2.4;;
17949;SDS011;9100;48.700;9.316;2022-09-09T02:58:53;7.4;;;2.4;;
17949;SDS011;9100;48.700;9.316;2022-09-09T02:59:53;7.4;;;2.4;;
17949;SDS011;9100;48.700;9.316;2022-09-09T03:00:53;7.4;;;2.4;;
17949;SDS011;9100;48.700;9.316;2022-09-09T03:01:53;7.4;;;2.4;;
17949;SDS011;9100;48.700;9.316;2022-09-09T03:02:46;3.1;;;2.1;;
17949;SDS011;9100;48.700;9.316;2022-09-09T03:02:53;3.1;;;2.1;;
17949;SDS011;9100;48.700;9.316;2022-09-09T03:03:53;3.1;;;2.1;;
17949;SDS011;9100;48.700;9.316;2022-09-09T03:04:53;3.1;;;2.1;;
17949;SDS011;9100;48.700;9.316;2022-09-09T03:05:53;3.1;;;2.1;;
17949;SDS011;9100;48.700;9.316;2022-09-09T03:06:53;3.1;;;2.1;;
17949;SDS011;9100;48.700;9.316;2022-09-09T03:07:46;4.5;;;2.4;;
17949;SDS011;9100;48.700;9.316;2022-09-09T03:07:53;4.5;;;2.4;;
17949;SDS011;9100;48.700;9.316;2022-09-09T03:08:53;4.5;;;2.4;;
17949;SDS011;9100;48.700;9.316;2022-09-09T03:09:53;4.5;;;2.4;;
17949;SDS011;9100;48.700;9.316;2022-09-09T03:10:53;4.5;;;2.4;;
17949;SDS011;9100;48.700;9.316;2022-09-09T03:11:53;4.5;;;2.4;;
17949;SDS011;9100;48.700;9.316;2022-09-09T03:12:46;3.7;;;2.1;;
17949;SDS011;9100;48.700;9.316;2022-09-09T03:12:53;3.7;;;2.1;;
17949;SDS011;9100;48.700;9.316;2022-09-09T03:13:53;3.7;;;2.1;;
17949;SDS011;9100;48.700;9.316;2022-09-09T03:14:53;3.7;;;2.1;;
17949;SDS011;9100;48.700;9.316;2022-09-09T03:15:53;3.7;;;2.1;;
17949;SDS011;9100;48.700;9.316;2022-09-09T03:16:53;3.7;;;2.1;;
17949;SDS011;9100;48.700;9.316;2022-09-09T03:17:46;3;;;2.3;;
17949;SDS011;9100;48.700;9.316;2022-09-09T03:17:53;3;;;2.3;;
17949;SDS011;9100;48.700;9.316;2022-09-09T03:18:53;3;;;2.3;;
17949;SDS011;9100;48.700;9.316;2022-09-09T03:19:53;3;;;2.3;;
17949;SDS011;9100;48.700;9.316;2022-09-09T03:20:53;3;;;2.3;;
17949;SDS011;9100;48.700;9.316;2022-09-09T03:21:53;3;;;2.3;;
17949;SDS011;9100;48.700;9.316;2022-09-09T03:22:46;2.2;;;1.8;;
17949;SDS011;9100;48.700;9.316;2022-09-09T03:22:53;2.2;;;1.8;;
17949;SDS011;9100;48.700;9.316;2022-09-09T03:23:53;2.2;;;1.8;;
17949;SDS011;9100;48.700;9.316;2022-09-09T03:24:53;2.2;;;1.8;;
17949;SDS011;9100;48.700;9.316;2022-09-09T03:25:53;2.2;;;1.8;;
17949;SDS011;9100;48.700;9.316;2022-09-09T03:26:53;2.2;;;1.8;;
17949;SDS011;9100;48.700;9.316;2022-09-09T03:27:46;2.8;;;2.3;;
17949;SDS011;9100;48.700;9.316;2022-09-09T03:27:53;2.8;;;2.3;;
17949;SDS011;9100;48.700;9.316;2022-09-09T03:28:53;2.8;;;2.3;;
17949;SDS011;9100;48.700;9.316;2022-09-09T03:29:53;2.8;;;2.3;;
17949;SDS011;9100;48.700;9.316;2022-09-09T03:30:57;2.8;;;2.3;;
17949;SDS011;9100;48.700;9.316;2022-09-09T03:31:53;2.8;;;2.3;;
17949;SDS011;9100;48.700;9.316;2022-09-09T03:32:46;2.1;;;2;;
17949;SDS011;9100;48.700;9.316;2022-09-09T03:32:53;2.1;;;2;;
17949;SDS011;9100;48.700;9.316;2022-09-09T03:33:53;2.1;;;2;;
17949;SDS011;9100;48.700;9.316;2022-09-09T03:34:53;2.1;;;2;;
17949;SDS011;9100;48.700;9.316;2022-09-09T03:35:53;2.1;;;2;;
17949;SDS011;9100;48.700;9.316;2022-09-09T03:36:53;2.1;;;2;;
17949;SDS011;9100;48.700;9.316;2022-09-09T03:37:46;3.3;;;1.9;;
17949;SDS011;9100;48.700;9.316;2022-09-09T03:37:53;3.3;;;1.9;;
17949;SDS011;9100;48.700;9.316;2022-09-09T03:38:53;3.3;;;1.9;;
17949;SDS011;9100;48.700;9.316;2022-09-09T03:39:53;3.3;;;1.9;;
17949;SDS011;9100;48.700;9.316;2022-09-09T03:40:55;3.3;;;1.9;;
17949;SDS011;9100;48.700;9.316;2022-09-09T03:41:53;3.3;;;1.9;;
17949;SDS011;9100;48.700;9.316;2022-09-09T03:42:46;5.6;;;2;;
17949;SDS011;9100;48.700;9.316;2022-09-09T03:42:53;5.6;;;2;;
17949;SDS011;9100;48.700;9.316;2022-09-09T03:43:53;5.6;;;2;;
17949;SDS011;9100;48.700;9.316;2022-09-09T03:44:53;5.6;;;2;;
17949;SDS011;9100;48.700;9.316;2022-09-09T03:45:53;5.6;;;2;;
17949;SDS011;9100;48.700;9.316;2022-09-09T03:46:53;5.6;;;2;;
17949;SDS011;9100;48.700;9.316;2022-09-09T03:47:46;5.8;;;2.1;;
17949;SDS011;9100;48.700;9.316;2022-09-09T03:47:53;5.8;;;2.1;;
17949;SDS011;9100;48.700;9.316;2022-09-09T03:48:53;5.8;;;2.1;;
17949;SDS011;9100;48.700;9.316;2022-09-09T03:49:53;5.8;;;2.1;;
17949;SDS011;9100;48.700;9.316;2022-09-09T03:50:54;5.8;;;2.1;;
17949;SDS011;9100;48.700;9.316;2022-09-09T03:51:53;5.8;;;2.1;;
17949;SDS011;9100;48.700;9.316;2022-09-09T03:52:46;3;;;2.1;;
17949;SDS011;9100;48.700;9.316;2022-09-09T03:52:53;3;;;2.1;;
17949;SDS011;9100;48.700;9.316;2022-09-09T03:53:53;3;;;2.1;;
17949;SDS011;9100;48.700;9.316;2022-09-09T03:54:53;3;;;2.1;;
17949;SDS011;9100;48.700;9.316;2022-09-09T03:55:54;3;;;2.1;;
17949;SDS011;9100;48.700;9.316;2022-09-09T03:56:53;3;;;2.1;;
17949;SDS011;9100;48.700;9.316;2022-09-09T03:57:46;3.2;;;1.6;;
17949;SDS011;9100;48.700;9.316;2022-09-09T03:57:53;3.2;;;1.6;;
17949;SDS011;9100;48.700;9.316;2022-09-09T03:58:53;3.2;;;1.6;;
17949;SDS011;9100;48.700;9.316;2022-09-09T03:59:53;3.2;;;1.6;;
17949;SDS011;9100;48.700;9.316;2022-09-09T04:00:54;3.2;;;1.6;;
17949;SDS011;9100;48.700;9.316;2022-09-09T04:01:53;3.2;;;1.6;;
17949;SDS011;9100;48.700;9.316;2022-09-09T04:02:46;2;;;1.7;;
17949;SDS011;9100;48.700;9.316;2022-09-09T04:02:53;2;;;1.7;;
17949;SDS011;9100;48.700;9.316;2022-09-09T04:03:53;2;;;1.7;;
17949;SDS011;9100;48.700;9.316;2022-09-09T04:04:53;2;;;1.7;;
17949;SDS011;9100;48.700;9.316;2022-09-09T04:05:53;2;;;1.7;;
17949;SDS011;9100;48.700;9.316;2022-09-09T04:06:53;2;;;1.7;;
17949;SDS011;9100;48.700;9.316;2022-09-09T04:07:46;2.2;;;1.9;;
17949;SDS011;9100;48.700;9.316;2022-09-09T04:07:53;2.2;;;1.9;;
17949;SDS011;9100;48.700;9.316;2022-09-09T04:08:53;2.2;;;1.9;;
17949;SDS011;9100;48.700;9.316;2022-09-09T04:09:53;2.2;;;1.9;;
17949;SDS011;9100;48.700;9.316;2022-09-09T04:10:53;2.2;;;1.9;;
17949;SDS011;9100;48.700;9.316;2022-09-09T04:11:53;2.2;;;1.9;;
17949;SDS011;9100;48.700;9.316;2022-09-09T04:12:46;2;;;1.8;;
17949;SDS011;9100;48.700;9.316;2022-09-09T04:12:53;2;;;1.8;;
17949;SDS011;9100;48.700;9.316;2022-09-09T04:13:53;2;;;1.8;;
17949;SDS011;9100;48.700;9.316;2022-09-09T04:14:53;2;;;1.8;;
17949;SDS011;9100;48.700;9.316;2022-09-09T04:15:54;2;;;1.8;;
17949;SDS011;9100;48.700;9.316;2022-09-09T04:16:53;2;;;1.8;;
17949;SDS011;9100;48.700;9.316;2022-09-09T04:17:46;2.4;;;1.7;;
17949;SDS011;9100;48.700;9.316;2022-09-09T04:17:53;2.4;;;1.7;;
17949;SDS011;9100;48.700;9.316;2022-09-09T04:18:53;2.4;;;1.7;;
17949;SDS011;9100;48.700;9.316;2022-09-09T04:19:53;2.4;;;1.7;;
17949;SDS011;9100;48.700;9.316;2022-09-09T04:20:53;2.4;;;1.7;;
17949;SDS011;9100;48.700;9.316;2022-09-09T04:21:53;2.4;;;1.7;;
17949;SDS011;9100;48.700;9.316;2022-09-09T04:22:46;7.7;;;2;;
17949;SDS011;9100;48.700;9.316;2022-09-09T04:22:53;7.7;;;2;;
17949;SDS011;9100;48.700;9.316;2022-09-09T04:23:53;7.7;;;2;;
17949;SDS011;9100;48.700;9.316;2022-09-09T04:24:53;7.7;;;2;;
17949;SDS011;9100;48.700;9.316;2022-09-09T04:25:53;7.7;;;2;;
17949;SDS011;9100;48.700;9.316;2022-09-09T04:26:53;7.7;;;2;;
17949;SDS011;9100;48.700;9.316;2022-09-09T04:27:46;4.2;;;2.2;;
17949;SDS011;9100;48.700;9.316;2022-09-09T04:27:53;4.2;;;2.2;;
17949;SDS011;9100;48.700;9.316;2022-09-09T04:28:53;4.2;;;2.2;;
17949;SDS011;9100;48.700;9.316;2022-09-09T04:29:53;4.2;;;2.2;;
17949;SDS011;9100;48.700;9.316;2022-09-09T04:30:53;4.2;;;2.2;;
17949;SDS011;9100;48.700;9.316;2022-09-09T04:31:53;4.2;;;2.2;;
17949;SDS011;9100;48.700;9.316;2022-09-09T04:32:46;1.6;;;1.5;;
17949;SDS011;9100;48.700;9.316;2022-09-09T04:32:53;1.6;;;1.5;;
17949;SDS011;9100;48.700;9.316;2022-09-09T04:33:53;1.6;;;1.5;;
17949;SDS011;9100;48.700;9.316;2022-09-09T04:34:53;1.6;;;1.5;;
17949;SDS011;9100;48.700;9.316;2022-09-09T04:35:53;1.6;;;1.5;;
17949;SDS011;9100;48.700;9.316;2022-09-09T04:36:53;1.6;;;1.5;;
17949;SDS011;9100;48.700;9.316;2022-09-09T04:37:46;2.3;;;2.1;;
17949;SDS011;9100;48.700;9.316;2022-09-09T04:37:53;2.3;;;2.1;;
17949;SDS011;9100;48.700;9.316;2022-09-09T04:38:53;2.3;;;2.1;;
17949;SDS011;9100;48.700;9.316;2022-09-09T04:39:53;2.3;;;2.1;;
17949;SDS011;9100;48.700;9.316;2022-09-09T04:40:53;2.3;;;2.1;;
17949;SDS011;9100;48.700;9.316;2022-09-09T04:41:53;2.3;;;2.1;;
17949;SDS011;9100;48.700;9.316;2022-09-09T04:42:46;1.7;;;1.4;;
17949;SDS011;9100;48.700;9.316;2022-09-09T04:42:53;1.7;;;1.4;;
17949;SDS011;9100;48.700;9.316;2022-09-09T04:43:53;1.7;;;1.4;;
17949;SDS011;9100;48.700;9.316;2022-09-09T04:44:53;1.7;;;1.4;;
17949;SDS011;9100;48.700;9.316;2022-09-09T04:45:53;1.7;;;1.4;;
17949;SDS011;9100;48.700;9.316;2022-09-09T04:46:53;1.7;;;1.4;;
17949;SDS011;9100;48.700;9.316;2022-09-09T04:47:46;3.2;;;1.8;;
17949;SDS011;9100;48.700;9.316;2022-09-09T04:47:53;3.2;;;1.8;;
17949;SDS011;9100;48.700;9.316;2022-09-09T04:48:53;3.2;;;1.8;;
17949;SDS011;9100;48.700;9.316;2022-09-09T04:49:53;3.2;;;1.8;;
17949;SDS011;9100;48.700;9.316;2022-09-09T04:50:54;3.2;;;1.8;;
17949;SDS011;9100;48.700;9.316;2022-09-09T04:51:53;3.2;;;1.8;;
17949;SDS011;9100;48.700;9.316;2022-09-09T04:52:46;4.5;;;1.6;;
17949;SDS011;9100;48.700;9.316;2022-09-09T04:52:53;4.5;;;1.6;;
17949;SDS011;9100;48.700;9.316;2022-09-09T04:53:53;4.5;;;1.6;;
17949;SDS011;9100;48.700;9.316;2022-09-09T04:54:53;4.5;;;1.6;;
17949;SDS011;9100;48.700;9.316;2022-09-09T04:56:00;4.5;;;1.6;;
17949;SDS011;9100;48.700;9.316;2022-09-09T04:56:53;4.5;;;1.6;;
17949;SDS011;9100;48.700;9.316;2022-09-09T04:57:46;3.2;;;1.6;;
17949;SDS011;9100;48.700;9.316;2022-09-09T04:57:53;3.2;;;1.6;;
17949;SDS011;9100;48.700;9.316;2022-09-09T04:58:53;3.2;;;1.6;;
17949;SDS011;9100;48.700;9.316;2022-09-09T04:59:53;3.2;;;1.6;;
17949;SDS011;9100;48.700;9.316;2022-09-09T05:00:53;3.2;;;1.6;;
17949;SDS011;9100;48.700;9.316;2022-09-09T05:01:53;3.2;;;1.6;;
17949;SDS011;9100;48.700;9.316;2022-09-09T05:02:46;4.7;;;1.7;;
17949;SDS011;9100;48.700;9.316;2022-09-09T05:02:53;4.7;;;1.7;;
17949;SDS011;9100;48.700;9.316;2022-09-09T05:03:53;4.7;;;1.7;;
17949;SDS011;9100;48.700;9.316;2022-09-09T05:04:53;4.7;;;1.7;;
17949;SDS011;9100;48.700;9.316;2022-09-09T05:05:53;4.7;;;1.7;;
17949;SDS011;9100;48.700;9.316;2022-09-09T05:06:53;4.7;;;1.7;;
17949;SDS011;9100;48.700;9.316;2022-09-09T05:07:46;1.9;;;1.8;;
17949;SDS011;9100;48.700;9.316;2022-09-09T05:07:53;1.9;;;1.8;;
17949;SDS011;9100;48.700;9.316;2022-09-09T05:08:53;1.9;;;1.8;;
17949;SDS011;9100;48.700;9.316;2022-09-09T05:09:53;1.9;;;1.8;;
17949;SDS011;9100;48.700;9.316;2022-09-09T05:10:53;1.9;;;1.8;;
17949;SDS011;9100;48.700;9.316;2022-09-09T05:11:53;1.9;;;1.8;;
17949;SDS011;9100;48.700;9.316;2022-09-09T05:12:51;2.4;;;1.6;;
17949;SDS011;9100;48.700;9.316;2022-09-09T05:12:53;2.4;;;1.6;;
17949;SDS011;9100;48.700;9.316;2022-09-09T05:13:53;2.4;;;1.6;;
17949;SDS011;9100;48.700;9.316;2022-09-09T05:14:53;2.4;;;1.6;;
17949;SDS011;9100;48.700;9.316;2022-09-09T05:15:53;2.4;;;1.6;;
17949;SDS011;9100;48.700;9.316;2022-09-09T05:16:53;2.4;;;1.6;;
17949;SDS011;9100;48.700;9.316;2022-09-09T05:17:46;2.4;;;1.7;;
17949;SDS011;9100;48.700;9.316;2022-09-09T05:17:56;2.4;;;1.7;;